sensor_id;sensor_type;location;lat;lon;timestamp;temperature;humidity
49829;DHT22;35723;51.194;5.112;2023-09-18T00:00:40;23.10;99.90
49829;DHT22;35723;51.194;5.112;2023-09-18T00:03:08;23.10;99.90
49829;DHT22;35723;51.194;5.112;2023-09-18T00:05:34;23.10;99.90
49829;DHT22;35723;51.194;5.112;2023-09-18T00:08:00;23.10;99.90
49829;DHT22;35723;51.194;5.112;2023-09-18T00:10:28;23.10;99.90
49829;DHT22;35723;51.194;5.112;2023-09-18T00:12:57;23.10;99.90
49829;DHT22;35723;51.194;5.112;2023-09-18T00:15:23;23.00;99.90
49829;DHT22;35723;51.194;5.112;2023-09-18T00:17:49;23.00;99.90
49829;DHT22;35723;51.194;5.112;2023-09-18T00:20:14;23.00;99.90
49829;DHT22;35723;51.194;5.112;2023-09-18T00:22:43;23.00;99.90
49829;DHT22;35723;51.194;5.112;2023-09-18T00:25:08;23.00;99.90
49829;DHT22;35723;51.194;5.112;2023-09-18T00:27:34;23.00;99.90
49829;DHT22;35723;51.194;5.112;2023-09-18T00:30:04;23.00;99.90
49829;DHT22;35723;51.194;5.112;2023-09-18T00:32:30;23.00;99.90
49829;DHT22;35723;51.194;5.112;2023-09-18T00:34:56;23.00;99.90
49829;DHT22;35723;51.194;5.112;2023-09-18T00:37:21;23.00;99.90
49829;DHT22;35723;51.194;5.112;2023-09-18T00:39:47;23.00;99.90
49829;DHT22;35723;51.194;5.112;2023-09-18T00:42:14;23.00;99.90
49829;DHT22;35723;51.194;5.112;2023-09-18T00:44:43;23.00;99.90
49829;DHT22;35723;51.194;5.112;2023-09-18T00:47:09;23.00;99.90
49829;DHT22;35723;51.194;5.112;2023-09-18T00:49:37;22.90;99.90
49829;DHT22;35723;51.194;5.112;2023-09-18T00:52:04;22.90;99.90
49829;DHT22;35723;51.194;5.112;2023-09-18T00:54:31;22.90;99.90
49829;DHT22;35723;51.194;5.112;2023-09-18T00:56:57;22.90;99.90
49829;DHT22;35723;51.194;5.112;2023-09-18T00:59:23;22.90;99.90
49829;DHT22;35723;51.194;5.112;2023-09-18T01:01:49;22.90;99.90
49829;DHT22;35723;51.194;5.112;2023-09-18T01:04:19;22.90;99.90
49829;DHT22;35723;51.194;5.112;2023-09-18T01:06:45;22.90;99.90
49829;DHT22;35723;51.194;5.112;2023-09-18T01:09:11;22.90;99.90
49829;DHT22;35723;51.194;5.112;2023-09-18T01:14:29;22.90;99.90
49829;DHT22;35723;51.194;5.112;2023-09-18T01:16:58;22.90;99.90
49829;DHT22;35723;51.194;5.112;2023-09-18T01:22:09;22.90;99.90
49829;DHT22;35723;51.194;5.112;2023-09-18T01:24:36;22.90;99.90
49829;DHT22;35723;51.194;5.112;2023-09-18T01:27:03;22.90;99.90
49829;DHT22;35723;51.194;5.112;2023-09-18T01:29:30;22.80;99.90
49829;DHT22;35723;51.194;5.112;2023-09-18T01:31:56;22.80;99.90
49829;DHT22;35723;51.194;5.112;2023-09-18T01:34:31;22.70;99.90
49829;DHT22;35723;51.194;5.112;2023-09-18T01:36:59;22.80;99.90
49829;DHT22;35723;51.194;5.112;2023-09-18T01:39:28;22.80;99.90
49829;DHT22;35723;51.194;5.112;2023-09-18T01:42:00;22.80;99.90
49829;DHT22;35723;51.194;5.112;2023-09-18T01:44:27;22.80;99.90
49829;DHT22;35723;51.194;5.112;2023-09-18T01:46:56;22.80;99.90
49829;DHT22;35723;51.194;5.112;2023-09-18T01:49:31;22.70;99.90
49829;DHT22;35723;51.194;5.112;2023-09-18T01:51:57;22.80;99.90
49829;DHT22;35723;51.194;5.112;2023-09-18T01:54:23;22.80;99.90
49829;DHT22;35723;51.194;5.112;2023-09-18T01:56:50;22.80;99.90
49829;DHT22;35723;51.194;5.112;2023-09-18T01:59:16;22.80;99.90
49829;DHT22;35723;51.194;5.112;2023-09-18T02:01:42;22.80;99.90
49829;DHT22;35723;51.194;5.112;2023-09-18T02:04:08;22.80;99.90
49829;DHT22;35723;51.194;5.112;2023-09-18T02:06:33;22.80;99.90
49829;DHT22;35723;51.194;5.112;2023-09-18T02:08:59;22.90;99.90
49829;DHT22;35723;51.194;5.112;2023-09-18T02:11:26;22.90;99.90
49829;DHT22;35723;51.194;5.112;2023-09-18T02:13:52;22.90;99.90
49829;DHT22;35723;51.194;5.112;2023-09-18T02:16:17;22.90;99.90
49829;DHT22;35723;51.194;5.112;2023-09-18T02:18:44;22.90;99.90
49829;DHT22;35723;51.194;5.112;2023-09-18T02:21:10;22.90;99.90
49829;DHT22;35723;51.194;5.112;2023-09-18T02:23:35;22.90;99.90
49829;DHT22;35723;51.194;5.112;2023-09-18T02:26:01;22.90;99.90
49829;DHT22;35723;51.194;5.112;2023-09-18T02:28:27;22.90;99.90
49829;DHT22;35723;51.194;5.112;2023-09-18T02:30:53;22.90;99.90
49829;DHT22;35723;51.194;5.112;2023-09-18T02:33:18;22.90;99.90
49829;DHT22;35723;51.194;5.112;2023-09-18T02:35:44;22.90;99.90
49829;DHT22;35723;51.194;5.112;2023-09-18T02:38:09;22.90;99.90
49829;DHT22;35723;51.194;5.112;2023-09-18T02:40:35;22.90;99.90
49829;DHT22;35723;51.194;5.112;2023-09-18T02:43:01;22.80;99.90
49829;DHT22;35723;51.194;5.112;2023-09-18T02:45:27;22.80;99.90
49829;DHT22;35723;51.194;5.112;2023-09-18T02:47:53;22.90;99.90
49829;DHT22;35723;51.194;5.112;2023-09-18T02:50:19;22.80;99.90
49829;DHT22;35723;51.194;5.112;2023-09-18T02:52:44;22.70;99.90
49829;DHT22;35723;51.194;5.112;2023-09-18T02:55:10;22.70;99.90
49829;DHT22;35723;51.194;5.112;2023-09-18T02:57:36;22.70;99.90
49829;DHT22;35723;51.194;5.112;2023-09-18T03:00:02;22.70;99.90
49829;DHT22;35723;51.194;5.112;2023-09-18T03:02:28;22.80;99.90
49829;DHT22;35723;51.194;5.112;2023-09-18T03:04:54;22.70;99.90
49829;DHT22;35723;51.194;5.112;2023-09-18T03:07:20;22.70;99.90
49829;DHT22;35723;51.194;5.112;2023-09-18T03:09:46;22.70;99.90
49829;DHT22;35723;51.194;5.112;2023-09-18T03:12:11;22.70;99.90
49829;DHT22;35723;51.194;5.112;2023-09-18T03:14:37;22.70;99.90
49829;DHT22;35723;51.194;5.112;2023-09-18T03:17:02;22.60;99.90
49829;DHT22;35723;51.194;5.112;2023-09-18T03:19:28;22.60;99.90
49829;DHT22;35723;51.194;5.112;2023-09-18T03:21:54;22.70;99.90
49829;DHT22;35723;51.194;5.112;2023-09-18T03:24:19;22.60;99.90
49829;DHT22;35723;51.194;5.112;2023-09-18T03:26:45;22.70;99.90
49829;DHT22;35723;51.194;5.112;2023-09-18T03:29:11;22.60;99.90
49829;DHT22;35723;51.194;5.112;2023-09-18T03:31:36;22.60;99.90
49829;DHT22;35723;51.194;5.112;2023-09-18T03:34:02;22.60;99.90
49829;DHT22;35723;51.194;5.112;2023-09-18T03:36:27;22.60;99.90
49829;DHT22;35723;51.194;5.112;2023-09-18T03:38:53;22.60;99.90
49829;DHT22;35723;51.194;5.112;2023-09-18T03:41:19;22.60;99.90
49829;DHT22;35723;51.194;5.112;2023-09-18T03:43:44;22.60;99.90
49829;DHT22;35723;51.194;5.112;2023-09-18T03:46:10;22.60;99.90
49829;DHT22;35723;51.194;5.112;2023-09-18T03:48:36;22.60;99.90
49829;DHT22;35723;51.194;5.112;2023-09-18T03:51:06;22.60;99.90
49829;DHT22;35723;51.194;5.112;2023-09-18T03:53:35;22.60;99.90
49829;DHT22;35723;51.194;5.112;2023-09-18T03:56:01;22.50;99.90
49829;DHT22;35723;51.194;5.112;2023-09-18T03:58:27;22.60;99.90
49829;DHT22;35723;51.194;5.112;2023-09-18T04:00:53;22.50;99.90
49829;DHT22;35723;51.194;5.112;2023-09-18T04:03:18;22.50;99.90
49829;DHT22;35723;51.194;5.112;2023-09-18T04:05:44;22.50;99.90
49829;DHT22;35723;51.194;5.112;2023-09-18T04:08:10;22.60;99.90
49829;DHT22;35723;51.194;5.112;2023-09-18T04:10:36;22.50;99.90
49829;DHT22;35723;51.194;5.112;2023-09-18T04:13:02;22.50;99.90
49829;DHT22;35723;51.194;5.112;2023-09-18T04:15:28;22.50;99.90
49829;DHT22;35723;51.194;5.112;2023-09-18T04:17:56;22.50;99.90
49829;DHT22;35723;51.194;5.112;2023-09-18T04:20:21;22.40;99.90
49829;DHT22;35723;51.194;5.112;2023-09-18T04:23:21;22.40;99.90
49829;DHT22;35723;51.194;5.112;2023-09-18T04:25:48;22.50;99.90
49829;DHT22;35723;51.194;5.112;2023-09-18T04:28:18;22.50;99.90
49829;DHT22;35723;51.194;5.112;2023-09-18T04:30:45;22.40;99.90
49829;DHT22;35723;51.194;5.112;2023-09-18T04:33:13;22.40;99.90
49829;DHT22;35723;51.194;5.112;2023-09-18T04:35:39;22.40;99.90
49829;DHT22;35723;51.194;5.112;2023-09-18T04:38:07;22.40;99.90
49829;DHT22;35723;51.194;5.112;2023-09-18T04:40:33;22.40;99.90
49829;DHT22;35723;51.194;5.112;2023-09-18T04:43:00;22.30;99.90
49829;DHT22;35723;51.194;5.112;2023-09-18T04:45:26;22.30;99.90
49829;DHT22;35723;51.194;5.112;2023-09-18T04:47:52;22.30;99.90
49829;DHT22;35723;51.194;5.112;2023-09-18T04:50:18;22.30;99.90
49829;DHT22;35723;51.194;5.112;2023-09-18T04:52:44;22.20;99.90
49829;DHT22;35723;51.194;5.112;2023-09-18T04:55:10;22.20;99.90
49829;DHT22;35723;51.194;5.112;2023-09-18T04:57:37;22.20;99.90
49829;DHT22;35723;51.194;5.112;2023-09-18T05:00:03;22.30;99.90
49829;DHT22;35723;51.194;5.112;2023-09-18T05:02:33;22.30;99.90
49829;DHT22;35723;51.194;5.112;2023-09-18T05:05:00;22.20;99.90
49829;DHT22;35723;51.194;5.112;2023-09-18T05:07:26;22.20;99.90
49829;DHT22;35723;51.194;5.112;2023-09-18T05:09:52;22.20;99.90
49829;DHT22;35723;51.194;5.112;2023-09-18T05:12:18;22.10;99.90
49829;DHT22;35723;51.194;5.112;2023-09-18T05:14:44;22.10;99.90
49829;DHT22;35723;51.194;5.112;2023-09-18T05:17:17;22.20;99.90
49829;DHT22;35723;51.194;5.112;2023-09-18T05:19:45;22.20;99.90
49829;DHT22;35723;51.194;5.112;2023-09-18T05:22:11;22.10;99.90
49829;DHT22;35723;51.194;5.112;2023-09-18T05:24:38;22.20;99.90
49829;DHT22;35723;51.194;5.112;2023-09-18T05:27:04;22.10;99.90
49829;DHT22;35723;51.194;5.112;2023-09-18T05:29:34;22.10;99.90
49829;DHT22;35723;51.194;5.112;2023-09-18T05:32:01;22.10;99.90
49829;DHT22;35723;51.194;5.112;2023-09-18T05:34:27;22.10;99.90
49829;DHT22;35723;51.194;5.112;2023-09-18T05:36:53;22.10;99.90
49829;DHT22;35723;51.194;5.112;2023-09-18T05:39:18;22.10;99.90
49829;DHT22;35723;51.194;5.112;2023-09-18T05:41:45;22.10;99.90
49829;DHT22;35723;51.194;5.112;2023-09-18T05:44:11;22.10;99.90
49829;DHT22;35723;51.194;5.112;2023-09-18T05:46:36;22.00;99.90
49829;DHT22;35723;51.194;5.112;2023-09-18T05:49:03;22.00;99.90
49829;DHT22;35723;51.194;5.112;2023-09-18T05:51:30;22.10;99.90
49829;DHT22;35723;51.194;5.112;2023-09-18T05:53:55;22.00;99.90
49829;DHT22;35723;51.194;5.112;2023-09-18T05:56:21;22.00;99.90
49829;DHT22;35723;51.194;5.112;2023-09-18T05:58:47;22.00;99.90
49829;DHT22;35723;51.194;5.112;2023-09-18T06:01:12;22.00;99.90
49829;DHT22;35723;51.194;5.112;2023-09-18T06:03:38;21.90;99.90
49829;DHT22;35723;51.194;5.112;2023-09-18T06:06:07;21.90;99.90
49829;DHT22;35723;51.194;5.112;2023-09-18T06:08:36;22.00;99.90
49829;DHT22;35723;51.194;5.112;2023-09-18T06:11:01;21.90;99.90
49829;DHT22;35723;51.194;5.112;2023-09-18T06:13:27;22.00;99.90
49829;DHT22;35723;51.194;5.112;2023-09-18T06:15:56;22.00;99.90
49829;DHT22;35723;51.194;5.112;2023-09-18T06:18:22;22.00;99.90
49829;DHT22;35723;51.194;5.112;2023-09-18T06:20:49;21.90;99.90
49829;DHT22;35723;51.194;5.112;2023-09-18T06:23:15;21.90;99.90
49829;DHT22;35723;51.194;5.112;2023-09-18T06:25:40;21.90;99.90
49829;DHT22;35723;51.194;5.112;2023-09-18T06:28:06;21.80;99.90
49829;DHT22;35723;51.194;5.112;2023-09-18T06:30:32;21.80;99.90
49829;DHT22;35723;51.194;5.112;2023-09-18T06:32:59;21.80;99.90
49829;DHT22;35723;51.194;5.112;2023-09-18T06:35:25;21.80;99.90
49829;DHT22;35723;51.194;5.112;2023-09-18T06:37:51;21.90;99.90
49829;DHT22;35723;51.194;5.112;2023-09-18T06:40:17;21.90;99.90
49829;DHT22;35723;51.194;5.112;2023-09-18T06:42:42;21.80;99.90
49829;DHT22;35723;51.194;5.112;2023-09-18T06:45:08;21.80;99.90
49829;DHT22;35723;51.194;5.112;2023-09-18T06:47:34;21.80;99.90
49829;DHT22;35723;51.194;5.112;2023-09-18T06:50:00;21.80;99.90
49829;DHT22;35723;51.194;5.112;2023-09-18T06:52:26;21.80;99.90
49829;DHT22;35723;51.194;5.112;2023-09-18T06:54:53;21.80;99.90
49829;DHT22;35723;51.194;5.112;2023-09-18T06:57:19;21.80;99.90
49829;DHT22;35723;51.194;5.112;2023-09-18T06:59:46;21.80;99.90
49829;DHT22;35723;51.194;5.112;2023-09-18T07:02:12;21.80;99.90
49829;DHT22;35723;51.194;5.112;2023-09-18T07:04:40;21.80;99.90
49829;DHT22;35723;51.194;5.112;2023-09-18T07:07:14;21.80;99.90
49829;DHT22;35723;51.194;5.112;2023-09-18T07:09:42;21.80;99.90
49829;DHT22;35723;51.194;5.112;2023-09-18T07:12:09;21.80;99.90
49829;DHT22;35723;51.194;5.112;2023-09-18T07:14:35;21.80;99.90
49829;DHT22;35723;51.194;5.112;2023-09-18T07:17:01;21.80;99.90
49829;DHT22;35723;51.194;5.112;2023-09-18T07:19:27;21.80;99.90
49829;DHT22;35723;51.194;5.112;2023-09-18T07:21:53;21.80;99.90
49829;DHT22;35723;51.194;5.112;2023-09-18T07:24:19;21.80;99.90
49829;DHT22;35723;51.194;5.112;2023-09-18T07:26:47;21.80;99.90
49829;DHT22;35723;51.194;5.112;2023-09-18T07:29:16;21.80;99.90
49829;DHT22;35723;51.194;5.112;2023-09-18T07:31:44;21.90;99.90
49829;DHT22;35723;51.194;5.112;2023-09-18T07:34:11;21.90;99.90
49829;DHT22;35723;51.194;5.112;2023-09-18T07:36:36;21.90;99.90
49829;DHT22;35723;51.194;5.112;2023-09-18T07:39:03;21.80;99.90
49829;DHT22;35723;51.194;5.112;2023-09-18T07:41:30;21.80;99.90
49829;DHT22;35723;51.194;5.112;2023-09-18T07:43:56;21.90;99.90
49829;DHT22;35723;51.194;5.112;2023-09-18T07:46:23;21.90;99.90
49829;DHT22;35723;51.194;5.112;2023-09-18T07:48:49;22.00;99.90
49829;DHT22;35723;51.194;5.112;2023-09-18T07:51:15;22.00;99.90
49829;DHT22;35723;51.194;5.112;2023-09-18T07:53:42;22.00;99.90
49829;DHT22;35723;51.194;5.112;2023-09-18T07:56:08;22.00;99.90
49829;DHT22;35723;51.194;5.112;2023-09-18T07:58:34;22.00;99.90
49829;DHT22;35723;51.194;5.112;2023-09-18T08:01:06;22.00;99.90
49829;DHT22;35723;51.194;5.112;2023-09-18T08:03:32;22.00;99.90
49829;DHT22;35723;51.194;5.112;2023-09-18T08:05:58;22.10;99.90
49829;DHT22;35723;51.194;5.112;2023-09-18T08:08:24;22.00;99.90
49829;DHT22;35723;51.194;5.112;2023-09-18T08:10:50;22.00;99.90
49829;DHT22;35723;51.194;5.112;2023-09-18T08:13:16;22.00;99.90
49829;DHT22;35723;51.194;5.112;2023-09-18T08:15:42;22.10;99.90
49829;DHT22;35723;51.194;5.112;2023-09-18T08:18:09;22.10;99.90
49829;DHT22;35723;51.194;5.112;2023-09-18T08:20:36;22.00;99.90
49829;DHT22;35723;51.194;5.112;2023-09-18T08:23:05;22.10;99.90
49829;DHT22;35723;51.194;5.112;2023-09-18T08:25:31;22.10;99.90
49829;DHT22;35723;51.194;5.112;2023-09-18T08:27:57;22.00;99.90
49829;DHT22;35723;51.194;5.112;2023-09-18T08:30:23;22.00;99.90
49829;DHT22;35723;51.194;5.112;2023-09-18T08:32:49;22.10;99.90
49829;DHT22;35723;51.194;5.112;2023-09-18T08:35:15;22.10;99.90
49829;DHT22;35723;51.194;5.112;2023-09-18T08:37:41;22.20;99.90
49829;DHT22;35723;51.194;5.112;2023-09-18T08:40:10;22.30;99.90
49829;DHT22;35723;51.194;5.112;2023-09-18T08:42:38;22.40;99.90
49829;DHT22;35723;51.194;5.112;2023-09-18T08:45:09;22.40;99.90
49829;DHT22;35723;51.194;5.112;2023-09-18T08:47:38;22.50;99.90
49829;DHT22;35723;51.194;5.112;2023-09-18T08:50:06;22.60;99.90
49829;DHT22;35723;51.194;5.112;2023-09-18T08:52:35;22.70;99.90
49829;DHT22;35723;51.194;5.112;2023-09-18T08:55:02;22.80;99.90
49829;DHT22;35723;51.194;5.112;2023-09-18T08:57:29;22.80;99.90
49829;DHT22;35723;51.194;5.112;2023-09-18T08:59:57;22.90;99.90
49829;DHT22;35723;51.194;5.112;2023-09-18T09:02:24;23.10;99.90
49829;DHT22;35723;51.194;5.112;2023-09-18T09:04:49;23.20;99.90
49829;DHT22;35723;51.194;5.112;2023-09-18T09:07:15;23.30;99.90
49829;DHT22;35723;51.194;5.112;2023-09-18T09:09:41;23.30;99.90
49829;DHT22;35723;51.194;5.112;2023-09-18T09:12:08;23.40;99.90
49829;DHT22;35723;51.194;5.112;2023-09-18T09:14:34;23.50;99.90
49829;DHT22;35723;51.194;5.112;2023-09-18T09:16:59;23.60;99.90
49829;DHT22;35723;51.194;5.112;2023-09-18T09:19:33;23.70;99.90
49829;DHT22;35723;51.194;5.112;2023-09-18T09:22:02;23.80;99.90
49829;DHT22;35723;51.194;5.112;2023-09-18T09:24:41;23.80;99.90
49829;DHT22;35723;51.194;5.112;2023-09-18T09:27:07;24.00;99.90
49829;DHT22;35723;51.194;5.112;2023-09-18T09:29:33;24.00;99.90
49829;DHT22;35723;51.194;5.112;2023-09-18T09:32:16;24.00;99.90
49829;DHT22;35723;51.194;5.112;2023-09-18T09:34:43;24.00;99.90
49829;DHT22;35723;51.194;5.112;2023-09-18T09:37:09;24.00;99.90
49829;DHT22;35723;51.194;5.112;2023-09-18T09:39:49;23.90;99.90
49829;DHT22;35723;51.194;5.112;2023-09-18T09:42:19;24.00;99.90
49829;DHT22;35723;51.194;5.112;2023-09-18T09:45:02;24.10;99.90
49829;DHT22;35723;51.194;5.112;2023-09-18T09:47:35;24.00;99.90
49829;DHT22;35723;51.194;5.112;2023-09-18T09:50:09;24.00;99.90
49829;DHT22;35723;51.194;5.112;2023-09-18T09:52:35;24.00;99.90
49829;DHT22;35723;51.194;5.112;2023-09-18T09:55:02;23.80;99.90
49829;DHT22;35723;51.194;5.112;2023-09-18T09:57:47;23.90;99.90
49829;DHT22;35723;51.194;5.112;2023-09-18T10:00:14;23.90;99.90
49829;DHT22;35723;51.194;5.112;2023-09-18T10:02:57;23.80;99.90
49829;DHT22;35723;51.194;5.112;2023-09-18T10:05:27;23.70;99.90
49829;DHT22;35723;51.194;5.112;2023-09-18T10:07:55;23.60;99.90
49829;DHT22;35723;51.194;5.112;2023-09-18T10:10:26;23.60;99.90
49829;DHT22;35723;51.194;5.112;2023-09-18T10:12:53;23.70;99.90
49829;DHT22;35723;51.194;5.112;2023-09-18T10:15:21;23.60;99.90
49829;DHT22;35723;51.194;5.112;2023-09-18T10:17:50;23.60;99.90
49829;DHT22;35723;51.194;5.112;2023-09-18T10:20:21;23.60;99.90
49829;DHT22;35723;51.194;5.112;2023-09-18T10:22:54;23.80;99.90
49829;DHT22;35723;51.194;5.112;2023-09-18T10:25:23;23.80;99.90
49829;DHT22;35723;51.194;5.112;2023-09-18T10:27:50;23.80;99.90
49829;DHT22;35723;51.194;5.112;2023-09-18T10:30:19;23.70;99.90
49829;DHT22;35723;51.194;5.112;2023-09-18T10:32:48;23.60;99.90
49829;DHT22;35723;51.194;5.112;2023-09-18T10:35:16;23.70;99.90
49829;DHT22;35723;51.194;5.112;2023-09-18T10:37:42;23.80;99.90
49829;DHT22;35723;51.194;5.112;2023-09-18T10:40:11;24.00;99.90
49829;DHT22;35723;51.194;5.112;2023-09-18T10:42:38;24.00;99.90
49829;DHT22;35723;51.194;5.112;2023-09-18T10:45:05;24.00;99.90
49829;DHT22;35723;51.194;5.112;2023-09-18T10:47:32;24.10;99.90
49829;DHT22;35723;51.194;5.112;2023-09-18T10:49:58;24.20;99.90
49829;DHT22;35723;51.194;5.112;2023-09-18T10:52:24;24.10;99.90
49829;DHT22;35723;51.194;5.112;2023-09-18T10:54:50;24.30;99.90
49829;DHT22;35723;51.194;5.112;2023-09-18T10:57:16;24.20;99.90
49829;DHT22;35723;51.194;5.112;2023-09-18T10:59:46;24.10;99.90
49829;DHT22;35723;51.194;5.112;2023-09-18T11:02:16;24.20;99.90
49829;DHT22;35723;51.194;5.112;2023-09-18T11:04:43;24.40;99.90
49829;DHT22;35723;51.194;5.112;2023-09-18T11:07:20;24.50;99.90
49829;DHT22;35723;51.194;5.112;2023-09-18T11:09:46;24.60;99.90
49829;DHT22;35723;51.194;5.112;2023-09-18T11:12:15;24.70;99.90
49829;DHT22;35723;51.194;5.112;2023-09-18T11:14:57;24.80;99.90
49829;DHT22;35723;51.194;5.112;2023-09-18T11:17:34;24.80;99.90
49829;DHT22;35723;51.194;5.112;2023-09-18T11:22:46;24.90;99.90
49829;DHT22;35723;51.194;5.112;2023-09-18T11:25:38;25.00;99.90
49829;DHT22;35723;51.194;5.112;2023-09-18T11:28:07;25.10;99.90
49829;DHT22;35723;51.194;5.112;2023-09-18T11:30:36;25.10;99.90
49829;DHT22;35723;51.194;5.112;2023-09-18T11:33:03;25.20;99.90
49829;DHT22;35723;51.194;5.112;2023-09-18T11:35:31;25.20;99.90
49829;DHT22;35723;51.194;5.112;2023-09-18T11:40:32;25.50;99.90
49829;DHT22;35723;51.194;5.112;2023-09-18T11:45:55;25.30;99.90
49829;DHT22;35723;51.194;5.112;2023-09-18T11:48:22;25.20;99.90
49829;DHT22;35723;51.194;5.112;2023-09-18T11:50:53;25.20;99.90
49829;DHT22;35723;51.194;5.112;2023-09-18T11:53:20;25.20;99.90
49829;DHT22;35723;51.194;5.112;2023-09-18T11:55:47;25.20;99.90
49829;DHT22;35723;51.194;5.112;2023-09-18T11:58:13;25.30;99.90
49829;DHT22;35723;51.194;5.112;2023-09-18T12:00:39;25.40;99.90
49829;DHT22;35723;51.194;5.112;2023-09-18T12:03:19;25.20;99.90
49829;DHT22;35723;51.194;5.112;2023-09-18T12:05:58;25.30;99.90
49829;DHT22;35723;51.194;5.112;2023-09-18T12:08:26;25.40;99.90
49829;DHT22;35723;51.194;5.112;2023-09-18T12:10:54;25.50;99.90
49829;DHT22;35723;51.194;5.112;2023-09-18T12:13:20;25.60;99.90
49829;DHT22;35723;51.194;5.112;2023-09-18T12:15:46;25.60;99.90
49829;DHT22;35723;51.194;5.112;2023-09-18T12:18:15;25.60;99.90
49829;DHT22;35723;51.194;5.112;2023-09-18T12:20:48;25.80;99.90
49829;DHT22;35723;51.194;5.112;2023-09-18T12:23:17;25.90;99.90
49829;DHT22;35723;51.194;5.112;2023-09-18T12:25:50;26.00;99.90
49829;DHT22;35723;51.194;5.112;2023-09-18T12:28:18;26.00;99.90
49829;DHT22;35723;51.194;5.112;2023-09-18T12:30:44;26.10;99.90
49829;DHT22;35723;51.194;5.112;2023-09-18T12:33:12;26.10;99.90
49829;DHT22;35723;51.194;5.112;2023-09-18T12:35:40;26.10;99.90
49829;DHT22;35723;51.194;5.112;2023-09-18T12:38:14;25.90;99.90
49829;DHT22;35723;51.194;5.112;2023-09-18T12:40:40;26.00;99.90
49829;DHT22;35723;51.194;5.112;2023-09-18T12:43:07;26.00;99.90
49829;DHT22;35723;51.194;5.112;2023-09-18T12:45:34;26.00;99.90
49829;DHT22;35723;51.194;5.112;2023-09-18T12:48:00;26.10;99.90
49829;DHT22;35723;51.194;5.112;2023-09-18T12:50:26;26.00;99.90
49829;DHT22;35723;51.194;5.112;2023-09-18T12:52:52;25.80;99.90
49829;DHT22;35723;51.194;5.112;2023-09-18T12:55:22;25.80;99.90
49829;DHT22;35723;51.194;5.112;2023-09-18T12:57:49;25.80;99.90
49829;DHT22;35723;51.194;5.112;2023-09-18T13:00:19;26.00;99.90
49829;DHT22;35723;51.194;5.112;2023-09-18T13:02:48;26.30;99.90
49829;DHT22;35723;51.194;5.112;2023-09-18T13:05:19;26.50;99.90
49829;DHT22;35723;51.194;5.112;2023-09-18T13:07:46;26.60;99.90
49829;DHT22;35723;51.194;5.112;2023-09-18T13:10:12;26.70;99.90
49829;DHT22;35723;51.194;5.112;2023-09-18T13:12:46;26.80;99.90
49829;DHT22;35723;51.194;5.112;2023-09-18T13:15:12;26.90;99.90
49829;DHT22;35723;51.194;5.112;2023-09-18T13:17:46;27.00;99.90
49829;DHT22;35723;51.194;5.112;2023-09-18T13:20:15;27.00;99.90
49829;DHT22;35723;51.194;5.112;2023-09-18T13:22:42;27.00;99.90
49829;DHT22;35723;51.194;5.112;2023-09-18T13:25:11;27.10;99.90
49829;DHT22;35723;51.194;5.112;2023-09-18T13:27:37;27.20;99.90
49829;DHT22;35723;51.194;5.112;2023-09-18T13:30:05;27.40;99.90
49829;DHT22;35723;51.194;5.112;2023-09-18T13:32:36;27.20;99.90
49829;DHT22;35723;51.194;5.112;2023-09-18T13:35:03;27.30;99.90
49829;DHT22;35723;51.194;5.112;2023-09-18T13:37:32;27.20;99.90
49829;DHT22;35723;51.194;5.112;2023-09-18T13:39:57;27.20;99.90
49829;DHT22;35723;51.194;5.112;2023-09-18T13:42:23;27.10;99.90
49829;DHT22;35723;51.194;5.112;2023-09-18T13:44:49;27.00;99.90
49829;DHT22;35723;51.194;5.112;2023-09-18T13:47:15;27.00;99.90
49829;DHT22;35723;51.194;5.112;2023-09-18T13:49:41;26.90;99.90
49829;DHT22;35723;51.194;5.112;2023-09-18T13:52:06;26.80;99.90
49829;DHT22;35723;51.194;5.112;2023-09-18T13:54:32;26.90;99.90
49829;DHT22;35723;51.194;5.112;2023-09-18T13:56:58;26.90;99.90
49829;DHT22;35723;51.194;5.112;2023-09-18T13:59:24;26.90;99.90
49829;DHT22;35723;51.194;5.112;2023-09-18T14:01:49;26.90;99.90
49829;DHT22;35723;51.194;5.112;2023-09-18T14:04:17;26.80;99.90
49829;DHT22;35723;51.194;5.112;2023-09-18T14:06:43;26.80;99.90
49829;DHT22;35723;51.194;5.112;2023-09-18T14:09:08;26.80;99.90
49829;DHT22;35723;51.194;5.112;2023-09-18T14:11:35;26.90;99.90
49829;DHT22;35723;51.194;5.112;2023-09-18T14:14:03;27.00;99.90
49829;DHT22;35723;51.194;5.112;2023-09-18T14:16:29;26.90;99.90
49829;DHT22;35723;51.194;5.112;2023-09-18T14:18:58;26.80;99.90
49829;DHT22;35723;51.194;5.112;2023-09-18T14:21:24;26.90;99.90
49829;DHT22;35723;51.194;5.112;2023-09-18T14:23:50;26.80;99.90
49829;DHT22;35723;51.194;5.112;2023-09-18T14:26:17;26.80;99.90
49829;DHT22;35723;51.194;5.112;2023-09-18T14:28:42;26.80;99.90
49829;DHT22;35723;51.194;5.112;2023-09-18T14:31:10;26.80;99.90
49829;DHT22;35723;51.194;5.112;2023-09-18T14:33:35;26.80;99.90
49829;DHT22;35723;51.194;5.112;2023-09-18T14:36:01;26.80;99.90
49829;DHT22;35723;51.194;5.112;2023-09-18T14:38:29;26.80;99.90
49829;DHT22;35723;51.194;5.112;2023-09-18T14:40:54;26.60;99.90
49829;DHT22;35723;51.194;5.112;2023-09-18T14:43:26;26.70;99.90
49829;DHT22;35723;51.194;5.112;2023-09-18T14:45:52;26.60;99.90
49829;DHT22;35723;51.194;5.112;2023-09-18T14:48:18;26.60;99.90
49829;DHT22;35723;51.194;5.112;2023-09-18T14:50:44;26.60;99.90
49829;DHT22;35723;51.194;5.112;2023-09-18T14:53:10;26.50;99.90
49829;DHT22;35723;51.194;5.112;2023-09-18T14:55:35;26.50;99.90
49829;DHT22;35723;51.194;5.112;2023-09-18T14:58:01;26.50;99.90
49829;DHT22;35723;51.194;5.112;2023-09-18T15:00:27;26.50;99.90
49829;DHT22;35723;51.194;5.112;2023-09-18T15:02:52;26.40;99.90
49829;DHT22;35723;51.194;5.112;2023-09-18T15:05:18;26.40;99.90
49829;DHT22;35723;51.194;5.112;2023-09-18T15:07:44;26.40;99.90
49829;DHT22;35723;51.194;5.112;2023-09-18T15:10:10;26.20;99.90
49829;DHT22;35723;51.194;5.112;2023-09-18T15:12:35;26.30;99.90
49829;DHT22;35723;51.194;5.112;2023-09-18T15:15:01;26.20;99.90
49829;DHT22;35723;51.194;5.112;2023-09-18T15:17:27;26.20;99.90
49829;DHT22;35723;51.194;5.112;2023-09-18T15:19:54;26.10;99.90
49829;DHT22;35723;51.194;5.112;2023-09-18T15:22:21;26.10;99.90
49829;DHT22;35723;51.194;5.112;2023-09-18T15:24:47;26.00;99.90
49829;DHT22;35723;51.194;5.112;2023-09-18T15:27:13;26.00;99.90
49829;DHT22;35723;51.194;5.112;2023-09-18T15:29:38;25.40;99.90
49829;DHT22;35723;51.194;5.112;2023-09-18T15:32:04;24.90;99.90
49829;DHT22;35723;51.194;5.112;2023-09-18T15:34:30;24.50;99.90
49829;DHT22;35723;51.194;5.112;2023-09-18T15:36:56;24.40;99.90
49829;DHT22;35723;51.194;5.112;2023-09-18T15:39:21;24.30;99.90
49829;DHT22;35723;51.194;5.112;2023-09-18T15:41:47;24.30;99.90
49829;DHT22;35723;51.194;5.112;2023-09-18T15:44:16;24.20;99.90